Argyle, Michigan
Current Conditions -  °F | °C
As of 9:19 PM on Friday 24 Oct 2014 (Local Time) from KBAX Reporting Station
Haze Haze  
Wind Chill: 45°   Ceiling: 2800
Heat Index: 45°   Visibility: 5mi
Dew Point: 45°   Wind: 0mph
Humidity: 99%   Direction: NA
Pressure: 29.95"   Gusts: NA
Location:  43.56°N, 82.94°W
Report Text: KBAX 250119Z AUTO 00000KT 5SM BR BKN028 07/07 A2995 RMK AO2 T00720070
Loading
Personal Weather Stations






























Interactive Weather Map
Tropical Storm Tracking
New forecast layout! Learn more

10-Day Weather Forecast

Advertisements
Track Severe Weather on mobile